sensor_id;sensor_type;location;lat;lon;timestamp;temperature;humidity
18335;DHT22;9293;49.524;10.964;2024-01-15T00:01:33;-3.10;99.90
18335;DHT22;9293;49.524;10.964;2024-01-15T00:04:02;-3.00;99.90
18335;DHT22;9293;49.524;10.964;2024-01-15T00:06:30;-3.00;99.90
18335;DHT22;9293;49.524;10.964;2024-01-15T00:09:01;-3.00;99.90
18335;DHT22;9293;49.524;10.964;2024-01-15T00:11:29;-3.00;99.90
18335;DHT22;9293;49.524;10.964;2024-01-15T00:13:57;-3.00;99.90
18335;DHT22;9293;49.524;10.964;2024-01-15T00:16:26;-3.00;99.90
18335;DHT22;9293;49.524;10.964;2024-01-15T00:18:54;-3.00;99.90
18335;DHT22;9293;49.524;10.964;2024-01-15T00:21:23;-3.00;99.90
18335;DHT22;9293;49.524;10.964;2024-01-15T00:23:51;-3.00;99.90
18335;DHT22;9293;49.524;10.964;2024-01-15T00:26:20;-3.00;99.90
18335;DHT22;9293;49.524;10.964;2024-01-15T00:28:48;-3.10;99.90
18335;DHT22;9293;49.524;10.964;2024-01-15T00:31:16;-3.00;99.90
18335;DHT22;9293;49.524;10.964;2024-01-15T00:33:46;-3.00;99.90
18335;DHT22;9293;49.524;10.964;2024-01-15T00:36:14;-3.00;99.90
18335;DHT22;9293;49.524;10.964;2024-01-15T00:38:44;-3.10;99.90
18335;DHT22;9293;49.524;10.964;2024-01-15T00:41:12;-3.00;99.90
18335;DHT22;9293;49.524;10.964;2024-01-15T00:43:41;-3.00;99.90
18335;DHT22;9293;49.524;10.964;2024-01-15T00:46:09;-3.10;99.90
18335;DHT22;9293;49.524;10.964;2024-01-15T00:48:38;-3.00;99.90
18335;DHT22;9293;49.524;10.964;2024-01-15T00:51:06;-3.00;99.90
18335;DHT22;9293;49.524;10.964;2024-01-15T00:53:35;-3.00;99.90
18335;DHT22;9293;49.524;10.964;2024-01-15T00:56:03;-2.90;99.90
18335;DHT22;9293;49.524;10.964;2024-01-15T00:58:32;-2.90;99.90
18335;DHT22;9293;49.524;10.964;2024-01-15T01:01:00;-2.90;99.90
18335;DHT22;9293;49.524;10.964;2024-01-15T01:03:28;-2.80;99.90
18335;DHT22;9293;49.524;10.964;2024-01-15T01:05:57;-2.80;99.90
18335;DHT22;9293;49.524;10.964;2024-01-15T01:08:26;-2.80;99.90
18335;DHT22;9293;49.524;10.964;2024-01-15T01:10:56;-2.80;99.90
18335;DHT22;9293;49.524;10.964;2024-01-15T01:13:24;-2.80;99.90
18335;DHT22;9293;49.524;10.964;2024-01-15T01:15:52;-2.80;99.90
18335;DHT22;9293;49.524;10.964;2024-01-15T01:18:21;-2.80;99.90
18335;DHT22;9293;49.524;10.964;2024-01-15T01:20:52;-2.80;99.90
18335;DHT22;9293;49.524;10.964;2024-01-15T01:23:22;-2.80;99.90
18335;DHT22;9293;49.524;10.964;2024-01-15T01:25:50;-2.80;99.90
18335;DHT22;9293;49.524;10.964;2024-01-15T01:28:21;-2.80;99.90
18335;DHT22;9293;49.524;10.964;2024-01-15T01:30:49;-2.80;99.90
18335;DHT22;9293;49.524;10.964;2024-01-15T01:33:18;-2.70;99.90
18335;DHT22;9293;49.524;10.964;2024-01-15T01:35:47;-2.70;99.90
18335;DHT22;9293;49.524;10.964;2024-01-15T01:38:15;-2.70;99.90
18335;DHT22;9293;49.524;10.964;2024-01-15T01:40:43;-2.70;99.90
18335;DHT22;9293;49.524;10.964;2024-01-15T01:43:12;-2.60;99.90
18335;DHT22;9293;49.524;10.964;2024-01-15T01:45:40;-2.60;99.90
18335;DHT22;9293;49.524;10.964;2024-01-15T01:48:08;-2.60;99.90
18335;DHT22;9293;49.524;10.964;2024-01-15T01:50:37;-2.60;99.90
18335;DHT22;9293;49.524;10.964;2024-01-15T01:53:06;-2.70;99.90
18335;DHT22;9293;49.524;10.964;2024-01-15T01:55:34;-2.60;99.90
18335;DHT22;9293;49.524;10.964;2024-01-15T01:58:04;-2.60;99.90
18335;DHT22;9293;49.524;10.964;2024-01-15T02:00:33;-2.60;99.90
18335;DHT22;9293;49.524;10.964;2024-01-15T02:03:02;-2.60;99.90
18335;DHT22;9293;49.524;10.964;2024-01-15T02:05:31;-2.50;99.90
18335;DHT22;9293;49.524;10.964;2024-01-15T02:08:00;-2.50;99.90
18335;DHT22;9293;49.524;10.964;2024-01-15T02:10:28;-2.50;99.90
18335;DHT22;9293;49.524;10.964;2024-01-15T02:12:56;-2.50;99.90
18335;DHT22;9293;49.524;10.964;2024-01-15T02:15:25;-2.50;99.90
18335;DHT22;9293;49.524;10.964;2024-01-15T02:18:11;-2.40;99.90
18335;DHT22;9293;49.524;10.964;2024-01-15T02:20:40;-2.50;99.90
18335;DHT22;9293;49.524;10.964;2024-01-15T02:23:09;-2.50;99.90
18335;DHT22;9293;49.524;10.964;2024-01-15T02:25:43;-2.50;99.90
18335;DHT22;9293;49.524;10.964;2024-01-15T02:28:14;-2.50;99.90
18335;DHT22;9293;49.524;10.964;2024-01-15T02:30:47;-2.50;99.90
18335;DHT22;9293;49.524;10.964;2024-01-15T02:33:20;-2.40;99.90
18335;DHT22;9293;49.524;10.964;2024-01-15T02:35:49;-2.40;99.90
18335;DHT22;9293;49.524;10.964;2024-01-15T02:38:18;-2.40;99.90
18335;DHT22;9293;49.524;10.964;2024-01-15T02:40:47;-2.40;99.90
18335;DHT22;9293;49.524;10.964;2024-01-15T02:43:15;-2.30;99.90
18335;DHT22;9293;49.524;10.964;2024-01-15T02:45:43;-2.30;99.90
18335;DHT22;9293;49.524;10.964;2024-01-15T02:48:12;-2.30;99.90
18335;DHT22;9293;49.524;10.964;2024-01-15T02:50:40;-2.20;99.90
18335;DHT22;9293;49.524;10.964;2024-01-15T02:53:09;-2.20;99.90
18335;DHT22;9293;49.524;10.964;2024-01-15T02:55:37;-2.30;99.90
18335;DHT22;9293;49.524;10.964;2024-01-15T02:58:05;-2.20;99.90
18335;DHT22;9293;49.524;10.964;2024-01-15T03:00:33;-2.20;99.90
18335;DHT22;9293;49.524;10.964;2024-01-15T03:03:02;-2.20;99.90
18335;DHT22;9293;49.524;10.964;2024-01-15T03:05:30;-2.20;99.90
18335;DHT22;9293;49.524;10.964;2024-01-15T03:07:59;-2.20;99.90
18335;DHT22;9293;49.524;10.964;2024-01-15T03:10:27;-2.20;99.90
18335;DHT22;9293;49.524;10.964;2024-01-15T03:12:55;-2.20;99.90
18335;DHT22;9293;49.524;10.964;2024-01-15T03:15:23;-2.20;99.90
18335;DHT22;9293;49.524;10.964;2024-01-15T03:17:52;-2.20;99.90
18335;DHT22;9293;49.524;10.964;2024-01-15T03:20:20;-2.10;99.90
18335;DHT22;9293;49.524;10.964;2024-01-15T03:22:48;-2.10;99.90
18335;DHT22;9293;49.524;10.964;2024-01-15T03:25:17;-2.10;99.90
18335;DHT22;9293;49.524;10.964;2024-01-15T03:27:45;-2.10;99.90
18335;DHT22;9293;49.524;10.964;2024-01-15T03:30:14;-2.10;99.90
18335;DHT22;9293;49.524;10.964;2024-01-15T03:32:42;-2.20;99.90
18335;DHT22;9293;49.524;10.964;2024-01-15T03:35:11;-2.20;99.90
18335;DHT22;9293;49.524;10.964;2024-01-15T03:37:39;-2.20;99.90
18335;DHT22;9293;49.524;10.964;2024-01-15T03:40:08;-2.20;99.90
18335;DHT22;9293;49.524;10.964;2024-01-15T03:42:37;-2.20;99.90
18335;DHT22;9293;49.524;10.964;2024-01-15T03:45:05;-2.20;99.90
18335;DHT22;9293;49.524;10.964;2024-01-15T03:47:34;-2.10;99.90
18335;DHT22;9293;49.524;10.964;2024-01-15T03:50:02;-2.10;99.90
18335;DHT22;9293;49.524;10.964;2024-01-15T03:52:30;-2.10;99.90
18335;DHT22;9293;49.524;10.964;2024-01-15T03:54:59;-2.10;99.90
18335;DHT22;9293;49.524;10.964;2024-01-15T03:57:27;-2.00;99.90
18335;DHT22;9293;49.524;10.964;2024-01-15T03:59:56;-2.00;99.90
18335;DHT22;9293;49.524;10.964;2024-01-15T04:02:25;-2.00;99.90
18335;DHT22;9293;49.524;10.964;2024-01-15T04:04:54;-2.00;99.90
18335;DHT22;9293;49.524;10.964;2024-01-15T04:07:22;-2.00;99.90
18335;DHT22;9293;49.524;10.964;2024-01-15T04:09:50;-2.00;99.90
18335;DHT22;9293;49.524;10.964;2024-01-15T04:12:19;-2.00;99.90
18335;DHT22;9293;49.524;10.964;2024-01-15T04:14:50;-1.90;99.90
18335;DHT22;9293;49.524;10.964;2024-01-15T04:17:26;-1.90;99.90
18335;DHT22;9293;49.524;10.964;2024-01-15T04:19:55;-1.90;99.90
18335;DHT22;9293;49.524;10.964;2024-01-15T04:22:25;-1.80;99.90
18335;DHT22;9293;49.524;10.964;2024-01-15T04:24:53;-1.80;99.90
18335;DHT22;9293;49.524;10.964;2024-01-15T04:27:21;-1.80;99.90
18335;DHT22;9293;49.524;10.964;2024-01-15T04:29:50;-1.80;99.90
18335;DHT22;9293;49.524;10.964;2024-01-15T04:32:18;-1.80;99.90
18335;DHT22;9293;49.524;10.964;2024-01-15T04:34:47;-1.80;99.90
18335;DHT22;9293;49.524;10.964;2024-01-15T04:37:15;-1.70;99.90
18335;DHT22;9293;49.524;10.964;2024-01-15T04:39:43;-1.70;99.90
18335;DHT22;9293;49.524;10.964;2024-01-15T04:42:12;-1.70;99.90
18335;DHT22;9293;49.524;10.964;2024-01-15T04:44:40;-1.60;99.90
18335;DHT22;9293;49.524;10.964;2024-01-15T04:47:09;-1.60;99.90
18335;DHT22;9293;49.524;10.964;2024-01-15T04:49:37;-1.60;99.90
18335;DHT22;9293;49.524;10.964;2024-01-15T04:52:05;-1.60;99.90
18335;DHT22;9293;49.524;10.964;2024-01-15T04:54:34;-1.60;99.90
18335;DHT22;9293;49.524;10.964;2024-01-15T04:57:02;-1.60;99.90
18335;DHT22;9293;49.524;10.964;2024-01-15T04:59:31;-1.60;99.90
18335;DHT22;9293;49.524;10.964;2024-01-15T05:01:59;-1.60;99.90
18335;DHT22;9293;49.524;10.964;2024-01-15T05:04:28;-1.50;99.90
18335;DHT22;9293;49.524;10.964;2024-01-15T05:06:56;-1.50;99.90
18335;DHT22;9293;49.524;10.964;2024-01-15T05:09:24;-1.50;99.90
18335;DHT22;9293;49.524;10.964;2024-01-15T05:11:56;-1.50;99.90
18335;DHT22;9293;49.524;10.964;2024-01-15T05:14:25;-1.60;99.90
18335;DHT22;9293;49.524;10.964;2024-01-15T05:16:53;-1.60;99.90
18335;DHT22;9293;49.524;10.964;2024-01-15T05:19:22;-1.60;99.90
18335;DHT22;9293;49.524;10.964;2024-01-15T05:21:50;-1.60;99.90
18335;DHT22;9293;49.524;10.964;2024-01-15T05:24:19;-1.60;99.90
18335;DHT22;9293;49.524;10.964;2024-01-15T05:26:47;-1.60;99.90
18335;DHT22;9293;49.524;10.964;2024-01-15T05:29:15;-1.60;99.90
18335;DHT22;9293;49.524;10.964;2024-01-15T05:31:44;-1.60;99.90
18335;DHT22;9293;49.524;10.964;2024-01-15T05:34:12;-1.50;99.90
18335;DHT22;9293;49.524;10.964;2024-01-15T05:36:41;-1.50;99.90
18335;DHT22;9293;49.524;10.964;2024-01-15T05:39:09;-1.50;99.90
18335;DHT22;9293;49.524;10.964;2024-01-15T05:41:37;-1.50;99.90
18335;DHT22;9293;49.524;10.964;2024-01-15T05:44:06;-1.50;99.90
18335;DHT22;9293;49.524;10.964;2024-01-15T05:46:34;-1.50;99.90
18335;DHT22;9293;49.524;10.964;2024-01-15T05:49:02;-1.50;99.90
18335;DHT22;9293;49.524;10.964;2024-01-15T05:51:31;-1.50;99.90
18335;DHT22;9293;49.524;10.964;2024-01-15T05:53:59;-1.50;99.90
18335;DHT22;9293;49.524;10.964;2024-01-15T05:56:27;-1.40;99.90
18335;DHT22;9293;49.524;10.964;2024-01-15T05:59:01;-1.40;99.90
18335;DHT22;9293;49.524;10.964;2024-01-15T06:01:32;-1.40;99.90
18335;DHT22;9293;49.524;10.964;2024-01-15T06:04:01;-1.40;99.90
18335;DHT22;9293;49.524;10.964;2024-01-15T06:06:29;-1.40;99.90
18335;DHT22;9293;49.524;10.964;2024-01-15T06:08:57;-1.40;99.90
18335;DHT22;9293;49.524;10.964;2024-01-15T06:11:33;-1.40;99.90
18335;DHT22;9293;49.524;10.964;2024-01-15T06:14:01;-1.40;99.90
18335;DHT22;9293;49.524;10.964;2024-01-15T06:16:29;-1.40;99.90
18335;DHT22;9293;49.524;10.964;2024-01-15T06:18:58;-1.40;99.90
18335;DHT22;9293;49.524;10.964;2024-01-15T06:21:26;-1.60;99.90
18335;DHT22;9293;49.524;10.964;2024-01-15T06:23:55;-1.50;99.90
18335;DHT22;9293;49.524;10.964;2024-01-15T06:26:24;-1.60;99.90
18335;DHT22;9293;49.524;10.964;2024-01-15T06:28:52;-1.60;99.90
18335;DHT22;9293;49.524;10.964;2024-01-15T06:31:21;-1.60;99.90
18335;DHT22;9293;49.524;10.964;2024-01-15T06:33:49;-1.60;99.90
18335;DHT22;9293;49.524;10.964;2024-01-15T06:36:18;-1.60;99.90
18335;DHT22;9293;49.524;10.964;2024-01-15T06:38:46;-1.60;99.90
18335;DHT22;9293;49.524;10.964;2024-01-15T06:41:15;-1.60;99.90
18335;DHT22;9293;49.524;10.964;2024-01-15T06:43:43;-1.60;99.90
18335;DHT22;9293;49.524;10.964;2024-01-15T06:46:11;-1.50;99.90
18335;DHT22;9293;49.524;10.964;2024-01-15T06:48:42;-1.60;99.90
18335;DHT22;9293;49.524;10.964;2024-01-15T06:51:11;-1.60;99.90
18335;DHT22;9293;49.524;10.964;2024-01-15T06:53:40;-1.60;99.90
18335;DHT22;9293;49.524;10.964;2024-01-15T06:56:08;-1.60;99.90
18335;DHT22;9293;49.524;10.964;2024-01-15T06:58:37;-1.50;99.90
18335;DHT22;9293;49.524;10.964;2024-01-15T07:01:08;-1.50;99.90
18335;DHT22;9293;49.524;10.964;2024-01-15T07:03:37;-1.40;99.90
18335;DHT22;9293;49.524;10.964;2024-01-15T07:06:06;-1.40;99.90
18335;DHT22;9293;49.524;10.964;2024-01-15T07:08:34;-1.40;99.90
18335;DHT22;9293;49.524;10.964;2024-01-15T07:11:06;-1.40;99.90
18335;DHT22;9293;49.524;10.964;2024-01-15T07:13:36;-1.40;99.90
18335;DHT22;9293;49.524;10.964;2024-01-15T07:16:04;-1.40;99.90
18335;DHT22;9293;49.524;10.964;2024-01-15T07:18:42;-1.30;99.90
18335;DHT22;9293;49.524;10.964;2024-01-15T07:21:10;-1.30;99.90
18335;DHT22;9293;49.524;10.964;2024-01-15T07:23:38;-1.30;99.90
18335;DHT22;9293;49.524;10.964;2024-01-15T07:26:07;-1.30;99.90
18335;DHT22;9293;49.524;10.964;2024-01-15T07:28:35;-1.30;99.90
18335;DHT22;9293;49.524;10.964;2024-01-15T07:31:03;-1.30;99.90
18335;DHT22;9293;49.524;10.964;2024-01-15T07:33:32;-1.30;99.90
18335;DHT22;9293;49.524;10.964;2024-01-15T07:36:00;-1.30;99.90
18335;DHT22;9293;49.524;10.964;2024-01-15T07:38:30;-1.30;99.90
18335;DHT22;9293;49.524;10.964;2024-01-15T07:40:59;-1.30;99.90
18335;DHT22;9293;49.524;10.964;2024-01-15T07:43:27;-1.30;99.90
18335;DHT22;9293;49.524;10.964;2024-01-15T07:45:56;-1.20;99.90
18335;DHT22;9293;49.524;10.964;2024-01-15T07:48:26;-1.20;99.90
18335;DHT22;9293;49.524;10.964;2024-01-15T07:50:54;-1.20;99.90
18335;DHT22;9293;49.524;10.964;2024-01-15T07:53:23;-1.20;99.90
18335;DHT22;9293;49.524;10.964;2024-01-15T07:55:51;-1.20;99.90
18335;DHT22;9293;49.524;10.964;2024-01-15T07:58:19;-1.10;99.90
18335;DHT22;9293;49.524;10.964;2024-01-15T08:00:48;-1.10;99.90
18335;DHT22;9293;49.524;10.964;2024-01-15T08:03:16;-1.10;99.90
18335;DHT22;9293;49.524;10.964;2024-01-15T08:05:44;-1.20;99.90
18335;DHT22;9293;49.524;10.964;2024-01-15T08:08:13;-1.20;99.90
18335;DHT22;9293;49.524;10.964;2024-01-15T08:10:41;-1.10;99.90
18335;DHT22;9293;49.524;10.964;2024-01-15T08:13:10;-1.00;99.90
18335;DHT22;9293;49.524;10.964;2024-01-15T08:15:38;-1.00;99.90
18335;DHT22;9293;49.524;10.964;2024-01-15T08:18:06;-1.00;99.90
18335;DHT22;9293;49.524;10.964;2024-01-15T08:20:35;-1.00;99.90
18335;DHT22;9293;49.524;10.964;2024-01-15T08:23:04;-0.90;99.90
18335;DHT22;9293;49.524;10.964;2024-01-15T08:25:32;-0.90;99.90
18335;DHT22;9293;49.524;10.964;2024-01-15T08:28:01;-0.90;99.90
18335;DHT22;9293;49.524;10.964;2024-01-15T08:30:29;-0.90;99.90
18335;DHT22;9293;49.524;10.964;2024-01-15T08:32:58;-0.90;99.90
18335;DHT22;9293;49.524;10.964;2024-01-15T08:35:37;-0.90;99.90
18335;DHT22;9293;49.524;10.964;2024-01-15T08:38:05;-0.90;99.90
18335;DHT22;9293;49.524;10.964;2024-01-15T08:40:34;-0.80;99.90
18335;DHT22;9293;49.524;10.964;2024-01-15T08:43:02;-0.80;99.90
18335;DHT22;9293;49.524;10.964;2024-01-15T08:45:30;-0.70;99.90
18335;DHT22;9293;49.524;10.964;2024-01-15T08:47:59;-0.70;99.90
18335;DHT22;9293;49.524;10.964;2024-01-15T08:50:31;-0.70;99.90
18335;DHT22;9293;49.524;10.964;2024-01-15T08:53:01;-0.60;99.90
18335;DHT22;9293;49.524;10.964;2024-01-15T08:55:29;-0.60;99.90
18335;DHT22;9293;49.524;10.964;2024-01-15T08:57:58;-0.60;99.90
18335;DHT22;9293;49.524;10.964;2024-01-15T09:00:26;-0.60;99.90
18335;DHT22;9293;49.524;10.964;2024-01-15T09:02:55;-0.60;99.90
18335;DHT22;9293;49.524;10.964;2024-01-15T09:05:24;-0.60;99.90
18335;DHT22;9293;49.524;10.964;2024-01-15T09:07:52;-0.60;99.90
18335;DHT22;9293;49.524;10.964;2024-01-15T09:10:21;-0.60;99.90
18335;DHT22;9293;49.524;10.964;2024-01-15T09:12:49;-0.60;99.90
18335;DHT22;9293;49.524;10.964;2024-01-15T09:15:17;-0.60;99.90
18335;DHT22;9293;49.524;10.964;2024-01-15T09:17:46;-0.60;99.90
18335;DHT22;9293;49.524;10.964;2024-01-15T09:20:15;-0.60;99.90
18335;DHT22;9293;49.524;10.964;2024-01-15T09:22:43;-0.60;99.90
18335;DHT22;9293;49.524;10.964;2024-01-15T09:25:12;-0.60;99.90
18335;DHT22;9293;49.524;10.964;2024-01-15T09:27:41;-0.50;99.90
18335;DHT22;9293;49.524;10.964;2024-01-15T09:30:10;-0.40;99.90
18335;DHT22;9293;49.524;10.964;2024-01-15T09:32:39;-0.30;99.90
18335;DHT22;9293;49.524;10.964;2024-01-15T09:35:08;-0.30;99.90
18335;DHT22;9293;49.524;10.964;2024-01-15T09:37:36;-0.20;99.90
18335;DHT22;9293;49.524;10.964;2024-01-15T09:40:14;-0.10;99.90
18335;DHT22;9293;49.524;10.964;2024-01-15T09:42:46;-0.20;99.90
18335;DHT22;9293;49.524;10.964;2024-01-15T09:45:15;0.00;99.90
18335;DHT22;9293;49.524;10.964;2024-01-15T09:47:43;0.00;99.90
18335;DHT22;9293;49.524;10.964;2024-01-15T09:50:13;0.00;99.90
18335;DHT22;9293;49.524;10.964;2024-01-15T09:52:44;0.20;99.90
18335;DHT22;9293;49.524;10.964;2024-01-15T09:55:13;0.20;99.90
18335;DHT22;9293;49.524;10.964;2024-01-15T09:57:44;0.10;99.90
18335;DHT22;9293;49.524;10.964;2024-01-15T10:00:17;0.10;99.90
18335;DHT22;9293;49.524;10.964;2024-01-15T10:02:47;0.10;99.90
18335;DHT22;9293;49.524;10.964;2024-01-15T10:05:16;0.00;99.90
18335;DHT22;9293;49.524;10.964;2024-01-15T10:07:47;0.00;99.90
18335;DHT22;9293;49.524;10.964;2024-01-15T10:10:18;0.10;99.90
18335;DHT22;9293;49.524;10.964;2024-01-15T10:12:46;0.10;99.90
18335;DHT22;9293;49.524;10.964;2024-01-15T10:15:15;0.20;99.90
18335;DHT22;9293;49.524;10.964;2024-01-15T10:17:44;0.20;99.90
18335;DHT22;9293;49.524;10.964;2024-01-15T10:20:13;0.10;99.90
18335;DHT22;9293;49.524;10.964;2024-01-15T10:22:42;0.10;99.90
18335;DHT22;9293;49.524;10.964;2024-01-15T10:25:14;0.00;99.90
18335;DHT22;9293;49.524;10.964;2024-01-15T10:27:43;0.00;99.90
18335;DHT22;9293;49.524;10.964;2024-01-15T10:30:12;0.00;99.90
18335;DHT22;9293;49.524;10.964;2024-01-15T10:32:57;0.00;99.90
18335;DHT22;9293;49.524;10.964;2024-01-15T10:35:35;0.00;99.90
18335;DHT22;9293;49.524;10.964;2024-01-15T10:38:05;0.10;99.90
18335;DHT22;9293;49.524;10.964;2024-01-15T10:40:33;0.20;99.90
18335;DHT22;9293;49.524;10.964;2024-01-15T10:43:03;0.20;99.90
18335;DHT22;9293;49.524;10.964;2024-01-15T10:45:34;0.20;99.90
18335;DHT22;9293;49.524;10.964;2024-01-15T10:48:05;0.10;99.90
18335;DHT22;9293;49.524;10.964;2024-01-15T10:50:39;0.10;99.90
18335;DHT22;9293;49.524;10.964;2024-01-15T10:53:08;0.10;99.90
18335;DHT22;9293;49.524;10.964;2024-01-15T10:55:38;0.00;99.90
18335;DHT22;9293;49.524;10.964;2024-01-15T10:58:08;-0.10;99.90
18335;DHT22;9293;49.524;10.964;2024-01-15T11:00:37;-0.10;99.90
18335;DHT22;9293;49.524;10.964;2024-01-15T11:03:06;0.00;99.90
18335;DHT22;9293;49.524;10.964;2024-01-15T11:05:39;0.10;99.90
18335;DHT22;9293;49.524;10.964;2024-01-15T11:08:07;0.10;99.90
18335;DHT22;9293;49.524;10.964;2024-01-15T11:13:40;0.20;99.90
18335;DHT22;9293;49.524;10.964;2024-01-15T11:16:10;0.10;99.90
18335;DHT22;9293;49.524;10.964;2024-01-15T11:21:26;0.20;99.90
18335;DHT22;9293;49.524;10.964;2024-01-15T11:23:57;0.30;99.90
18335;DHT22;9293;49.524;10.964;2024-01-15T11:26:45;0.30;99.90
18335;DHT22;9293;49.524;10.964;2024-01-15T11:29:33;0.40;99.90
18335;DHT22;9293;49.524;10.964;2024-01-15T11:32:12;0.50;99.90
18335;DHT22;9293;49.524;10.964;2024-01-15T11:34:57;0.50;99.90
18335;DHT22;9293;49.524;10.964;2024-01-15T11:40:20;0.50;99.90
18335;DHT22;9293;49.524;10.964;2024-01-15T11:42:49;0.40;99.90
18335;DHT22;9293;49.524;10.964;2024-01-15T11:45:22;0.50;99.90
18335;DHT22;9293;49.524;10.964;2024-01-15T11:50:33;0.50;99.90
18335;DHT22;9293;49.524;10.964;2024-01-15T11:55:49;0.40;99.90
18335;DHT22;9293;49.524;10.964;2024-01-15T11:58:19;0.50;99.90
18335;DHT22;9293;49.524;10.964;2024-01-15T12:00:48;0.60;99.90
18335;DHT22;9293;49.524;10.964;2024-01-15T12:03:24;0.50;99.90
18335;DHT22;9293;49.524;10.964;2024-01-15T12:05:53;0.40;99.90
18335;DHT22;9293;49.524;10.964;2024-01-15T12:08:24;0.40;99.90
18335;DHT22;9293;49.524;10.964;2024-01-15T12:10:54;0.40;99.90
18335;DHT22;9293;49.524;10.964;2024-01-15T12:13:22;0.40;99.90
18335;DHT22;9293;49.524;10.964;2024-01-15T12:15:51;0.40;99.90
18335;DHT22;9293;49.524;10.964;2024-01-15T12:18:19;0.40;99.90
18335;DHT22;9293;49.524;10.964;2024-01-15T12:20:48;0.50;99.90
18335;DHT22;9293;49.524;10.964;2024-01-15T12:23:17;0.60;99.90
18335;DHT22;9293;49.524;10.964;2024-01-15T12:25:45;0.50;99.90
18335;DHT22;9293;49.524;10.964;2024-01-15T12:28:15;0.50;99.90
18335;DHT22;9293;49.524;10.964;2024-01-15T12:30:47;0.60;99.90
18335;DHT22;9293;49.524;10.964;2024-01-15T12:33:18;0.70;99.90
18335;DHT22;9293;49.524;10.964;2024-01-15T12:35:53;0.70;99.90
18335;DHT22;9293;49.524;10.964;2024-01-15T12:38:21;0.80;99.90
18335;DHT22;9293;49.524;10.964;2024-01-15T12:40:53;0.80;99.90
18335;DHT22;9293;49.524;10.964;2024-01-15T12:43:22;0.80;99.90
18335;DHT22;9293;49.524;10.964;2024-01-15T12:45:51;0.70;99.90
18335;DHT22;9293;49.524;10.964;2024-01-15T12:48:19;0.70;99.90
18335;DHT22;9293;49.524;10.964;2024-01-15T12:50:48;0.60;99.90
18335;DHT22;9293;49.524;10.964;2024-01-15T12:53:16;0.70;99.90
18335;DHT22;9293;49.524;10.964;2024-01-15T12:55:45;0.80;99.90
18335;DHT22;9293;49.524;10.964;2024-01-15T12:58:14;0.80;99.90
18335;DHT22;9293;49.524;10.964;2024-01-15T13:00:49;0.90;99.90
18335;DHT22;9293;49.524;10.964;2024-01-15T13:03:18;0.80;99.90
18335;DHT22;9293;49.524;10.964;2024-01-15T13:05:47;0.80;99.90
18335;DHT22;9293;49.524;10.964;2024-01-15T13:08:18;0.80;99.90
18335;DHT22;9293;49.524;10.964;2024-01-15T13:10:47;0.60;99.90
18335;DHT22;9293;49.524;10.964;2024-01-15T13:13:16;0.60;99.90
18335;DHT22;9293;49.524;10.964;2024-01-15T13:15:44;0.50;99.90
18335;DHT22;9293;49.524;10.964;2024-01-15T13:18:12;0.50;99.90
18335;DHT22;9293;49.524;10.964;2024-01-15T13:20:41;0.40;99.90
18335;DHT22;9293;49.524;10.964;2024-01-15T13:23:11;0.40;99.90
18335;DHT22;9293;49.524;10.964;2024-01-15T13:25:39;0.50;99.90
18335;DHT22;9293;49.524;10.964;2024-01-15T13:28:11;0.40;99.90
18335;DHT22;9293;49.524;10.964;2024-01-15T13:30:39;0.50;99.90
18335;DHT22;9293;49.524;10.964;2024-01-15T13:33:08;0.40;99.90
18335;DHT22;9293;49.524;10.964;2024-01-15T13:35:36;0.50;99.90
18335;DHT22;9293;49.524;10.964;2024-01-15T13:38:05;0.50;99.90
18335;DHT22;9293;49.524;10.964;2024-01-15T13:40:33;0.50;99.90
18335;DHT22;9293;49.524;10.964;2024-01-15T13:43:02;0.40;99.90
18335;DHT22;9293;49.524;10.964;2024-01-15T13:45:30;0.40;99.90
18335;DHT22;9293;49.524;10.964;2024-01-15T13:47:59;0.40;99.90
18335;DHT22;9293;49.524;10.964;2024-01-15T13:50:27;0.40;99.90
18335;DHT22;9293;49.524;10.964;2024-01-15T13:52:55;0.40;99.90
18335;DHT22;9293;49.524;10.964;2024-01-15T13:55:24;0.30;99.90
18335;DHT22;9293;49.524;10.964;2024-01-15T13:57:52;0.30;99.90
18335;DHT22;9293;49.524;10.964;2024-01-15T14:00:24;0.30;99.90
18335;DHT22;9293;49.524;10.964;2024-01-15T14:02:56;0.20;99.90
18335;DHT22;9293;49.524;10.964;2024-01-15T14:05:28;0.10;99.90
18335;DHT22;9293;49.524;10.964;2024-01-15T14:07:56;0.10;99.90
18335;DHT22;9293;49.524;10.964;2024-01-15T14:10:25;0.10;99.90
18335;DHT22;9293;49.524;10.964;2024-01-15T14:12:53;0.10;99.90
18335;DHT22;9293;49.524;10.964;2024-01-15T14:15:21;0.20;99.90
18335;DHT22;9293;49.524;10.964;2024-01-15T14:17:50;0.20;99.90
18335;DHT22;9293;49.524;10.964;2024-01-15T14:20:19;0.20;99.90
18335;DHT22;9293;49.524;10.964;2024-01-15T14:22:48;0.10;99.90
18335;DHT22;9293;49.524;10.964;2024-01-15T14:25:17;0.20;99.90
18335;DHT22;9293;49.524;10.964;2024-01-15T14:27:46;0.10;99.90
18335;DHT22;9293;49.524;10.964;2024-01-15T14:30:19;0.10;99.90
18335;DHT22;9293;49.524;10.964;2024-01-15T14:32:47;0.10;99.90
18335;DHT22;9293;49.524;10.964;2024-01-15T14:35:16;0.10;99.90
18335;DHT22;9293;49.524;10.964;2024-01-15T14:37:44;0.10;99.90
18335;DHT22;9293;49.524;10.964;2024-01-15T14:40:14;0.10;99.90
18335;DHT22;9293;49.524;10.964;2024-01-15T14:42:44;0.10;99.90
18335;DHT22;9293;49.524;10.964;2024-01-15T14:45:12;0.10;99.90
18335;DHT22;9293;49.524;10.964;2024-01-15T14:47:41;0.20;99.90
18335;DHT22;9293;49.524;10.964;2024-01-15T14:50:10;0.10;99.90
18335;DHT22;9293;49.524;10.964;2024-01-15T14:52:38;0.20;99.90
18335;DHT22;9293;49.524;10.964;2024-01-15T14:55:12;0.10;99.90
18335;DHT22;9293;49.524;10.964;2024-01-15T14:57:41;0.20;99.90
18335;DHT22;9293;49.524;10.964;2024-01-15T15:00:10;0.20;99.90
18335;DHT22;9293;49.524;10.964;2024-01-15T15:02:43;0.20;99.90
18335;DHT22;9293;49.524;10.964;2024-01-15T15:05:11;0.20;99.90
18335;DHT22;9293;49.524;10.964;2024-01-15T15:07:41;0.20;99.90
18335;DHT22;9293;49.524;10.964;2024-01-15T15:10:10;0.20;99.90
18335;DHT22;9293;49.524;10.964;2024-01-15T15:12:42;0.30;99.90
18335;DHT22;9293;49.524;10.964;2024-01-15T15:15:10;0.20;99.90
18335;DHT22;9293;49.524;10.964;2024-01-15T15:17:47;0.20;99.90
18335;DHT22;9293;49.524;10.964;2024-01-15T15:20:16;0.20;99.90
18335;DHT22;9293;49.524;10.964;2024-01-15T15:22:45;0.20;99.90
18335;DHT22;9293;49.524;10.964;2024-01-15T15:25:16;0.10;99.90
18335;DHT22;9293;49.524;10.964;2024-01-15T15:27:45;0.10;99.90
18335;DHT22;9293;49.524;10.964;2024-01-15T15:30:20;0.10;99.90
18335;DHT22;9293;49.524;10.964;2024-01-15T15:32:49;0.00;99.90
18335;DHT22;9293;49.524;10.964;2024-01-15T15:35:19;0.00;99.90
18335;DHT22;9293;49.524;10.964;2024-01-15T15:37:47;0.00;99.90
18335;DHT22;9293;49.524;10.964;2024-01-15T15:40:16;-0.10;99.90
18335;DHT22;9293;49.524;10.964;2024-01-15T15:42:45;-0.10;99.90
18335;DHT22;9293;49.524;10.964;2024-01-15T15:45:14;-0.10;99.90
18335;DHT22;9293;49.524;10.964;2024-01-15T15:47:42;-0.20;99.90
18335;DHT22;9293;49.524;10.964;2024-01-15T15:50:11;-0.20;99.90
18335;DHT22;9293;49.524;10.964;2024-01-15T15:52:39;-0.20;99.90
18335;DHT22;9293;49.524;10.964;2024-01-15T15:55:08;-0.20;99.90
18335;DHT22;9293;49.524;10.964;2024-01-15T15:57:36;-0.20;99.90
18335;DHT22;9293;49.524;10.964;2024-01-15T16:00:06;-0.20;99.90
18335;DHT22;9293;49.524;10.964;2024-01-15T16:02:40;-0.10;99.90